createdAt,value
2018-02-18T00:00:23.724Z,1005.43
2018-02-18T00:01:23.750Z,1005.39
2018-02-18T00:02:23.775Z,1005.40
2018-02-18T00:03:23.800Z,1005.42
2018-02-18T00:04:23.826Z,1005.38
2018-02-18T00:05:23.852Z,1005.46
2018-02-18T00:06:23.878Z,1005.46
2018-02-18T00:07:23.971Z,1005.42
2018-02-18T00:08:23.961Z,1005.46
2018-02-18T00:09:23.956Z,1005.43
2018-02-18T00:10:23.981Z,1005.50
2018-02-18T00:11:24.006Z,1005.48
2018-02-18T00:12:24.031Z,1005.54
2018-02-18T00:13:24.058Z,1005.54
2018-02-18T00:14:24.084Z,1005.56
2018-02-18T00:15:24.109Z,1005.59
2018-02-18T00:16:24.139Z,1005.58
2018-02-18T00:17:24.163Z,1005.54
2018-02-18T00:18:24.187Z,1005.56
2018-02-18T00:19:24.212Z,1005.57
2018-02-18T00:20:24.243Z,1005.61
2018-02-18T00:21:24.265Z,1005.59
2018-02-18T00:22:24.290Z,1005.58
2018-02-18T00:23:24.315Z,1005.60
2018-02-18T00:24:24.341Z,1005.65
2018-02-18T00:25:24.367Z,1005.62
2018-02-18T00:26:24.393Z,1005.67
2018-02-18T00:27:24.418Z,1005.66
2018-02-18T00:28:24.444Z,1005.66
2018-02-18T00:29:24.470Z,1005.68
2018-02-18T00:30:24.496Z,1005.68
2018-02-18T00:31:24.521Z,1005.64
2018-02-18T00:32:24.547Z,1005.66
2018-02-18T00:33:24.574Z,1005.72
2018-02-18T00:34:24.599Z,1005.68
2018-02-18T00:35:24.624Z,1005.68
2018-02-18T00:36:24.651Z,1005.65
2018-02-18T00:37:24.677Z,1005.66
2018-02-18T00:38:24.703Z,1005.61
2018-02-18T00:39:24.729Z,1005.59
2018-02-18T00:40:24.754Z,1005.57
2018-02-18T00:41:24.779Z,1005.62
2018-02-18T00:42:24.805Z,1005.64
2018-02-18T00:43:24.831Z,1005.68
2018-02-18T00:44:24.858Z,1005.66
2018-02-18T00:45:24.884Z,1005.71
2018-02-18T00:46:24.910Z,1005.73
2018-02-18T00:47:24.935Z,1005.71
2018-02-18T00:48:24.961Z,1005.74
2018-02-18T00:49:24.987Z,1005.77
2018-02-18T00:50:25.015Z,1005.75
2018-02-18T00:51:25.038Z,1005.76
2018-02-18T00:52:25.065Z,1005.76
2018-02-18T00:53:25.091Z,1005.74
2018-02-18T00:54:25.118Z,1005.78
2018-02-18T00:55:25.141Z,1005.76
2018-02-18T00:56:25.168Z,1005.71
2018-02-18T00:57:25.195Z,1005.73
2018-02-18T00:58:25.221Z,1005.78
2018-02-18T00:59:25.246Z,1005.77
2018-02-18T01:00:25.272Z,1005.80
2018-02-18T01:01:25.299Z,1005.83
2018-02-18T01:02:25.325Z,1005.82
2018-02-18T01:03:25.350Z,1005.84
2018-02-18T01:04:25.376Z,1005.84
2018-02-18T01:05:25.404Z,1005.88
2018-02-18T01:06:25.430Z,1005.90
2018-02-18T01:07:25.454Z,1005.94
2018-02-18T01:08:25.480Z,1005.96
2018-02-18T01:09:25.507Z,1005.92
2018-02-18T01:10:25.533Z,1005.88
2018-02-18T01:11:25.562Z,1005.90
2018-02-18T01:12:25.583Z,1005.98
2018-02-18T01:13:25.632Z,1005.94
2018-02-18T01:14:25.639Z,1005.91
2018-02-18T01:15:25.662Z,1005.92
2018-02-18T01:16:25.688Z,1005.93
2018-02-18T01:17:25.716Z,1005.92
2018-02-18T01:18:25.740Z,1005.98
2018-02-18T01:19:25.767Z,1005.94
2018-02-18T01:20:25.792Z,1005.99
2018-02-18T01:21:25.818Z,1005.94
2018-02-18T01:22:25.845Z,1005.93
2018-02-18T01:23:25.869Z,1005.89
2018-02-18T01:24:25.895Z,1005.88
2018-02-18T01:25:25.921Z,1005.89
2018-02-18T01:26:25.947Z,1005.93
2018-02-18T01:27:25.973Z,1005.91
2018-02-18T01:28:26.000Z,1005.93
2018-02-18T01:29:26.025Z,1005.89
2018-02-18T01:30:26.055Z,1005.90
2018-02-18T01:31:26.076Z,1005.92
2018-02-18T01:32:26.104Z,1005.96
2018-02-18T01:33:26.127Z,1005.98
2018-02-18T01:34:26.154Z,1005.97
2018-02-18T01:35:26.178Z,1005.98
2018-02-18T01:36:26.207Z,1006.00
2018-02-18T01:37:26.232Z,1006.00
2018-02-18T01:38:26.257Z,1005.99
2018-02-18T01:39:26.282Z,1006.01
2018-02-18T01:40:26.307Z,1005.98
2018-02-18T01:41:26.333Z,1006.06
2018-02-18T01:42:26.360Z,1006.06
2018-02-18T01:43:26.386Z,1006.04
2018-02-18T01:44:26.411Z,1006.08
2018-02-18T01:45:26.436Z,1006.08
2018-02-18T01:46:26.462Z,1006.05
2018-02-18T01:47:26.489Z,1006.08
2018-02-18T01:48:26.514Z,1006.13
2018-02-18T01:49:26.540Z,1006.11
2018-02-18T01:50:26.566Z,1006.12
2018-02-18T01:51:26.591Z,1006.12
2018-02-18T01:52:26.615Z,1006.11
2018-02-18T01:53:26.644Z,1006.10
2018-02-18T01:54:26.669Z,1006.07
2018-02-18T01:55:26.695Z,1006.04
2018-02-18T01:56:26.720Z,1006.04
2018-02-18T01:57:26.746Z,1006.03
2018-02-18T01:58:26.772Z,1006.04
2018-02-18T01:59:26.797Z,1006.02
2018-02-18T02:00:26.827Z,1006.07
2018-02-18T02:01:26.849Z,1006.08
2018-02-18T02:02:26.875Z,1006.08
2018-02-18T02:03:26.902Z,1006.15
2018-02-18T02:04:26.931Z,1006.12
2018-02-18T02:05:26.952Z,1006.11
2018-02-18T02:06:26.978Z,1006.07
2018-02-18T02:07:27.003Z,1006.11
2018-02-18T02:08:27.029Z,1006.09
2018-02-18T02:09:27.055Z,1006.09
2018-02-18T02:10:27.081Z,1006.08
2018-02-18T02:11:27.107Z,1006.10
2018-02-18T02:12:27.134Z,1006.14
2018-02-18T02:13:27.157Z,1006.13
2018-02-18T02:14:27.185Z,1006.13
2018-02-18T02:15:27.210Z,1006.17
2018-02-18T02:16:27.236Z,1006.11
2018-02-18T02:17:27.261Z,1006.11
2018-02-18T02:18:27.287Z,1006.13
2018-02-18T02:19:27.314Z,1006.09
2018-02-18T02:20:27.337Z,1006.08
2018-02-18T02:21:27.364Z,1006.08
2018-02-18T02:22:27.390Z,1006.09
2018-02-18T02:23:27.415Z,1006.11
2018-02-18T02:24:27.441Z,1006.08
2018-02-18T02:25:27.471Z,1006.11
2018-02-18T02:26:27.496Z,1006.10
2018-02-18T02:27:27.518Z,1006.11
2018-02-18T02:28:27.543Z,1006.10
2018-02-18T02:29:27.570Z,1006.09
2018-02-18T02:30:27.607Z,1006.10
2018-02-18T02:31:27.619Z,1006.11
2018-02-18T02:32:27.646Z,1006.08
2018-02-18T02:33:27.674Z,1006.11
2018-02-18T02:34:27.698Z,1006.11
2018-02-18T02:35:27.723Z,1006.12
2018-02-18T02:36:27.752Z,1006.08
2018-02-18T02:37:27.774Z,1006.11
2018-02-18T02:38:27.799Z,1006.15
2018-02-18T02:39:27.826Z,1006.10
2018-02-18T02:40:27.850Z,1006.13
2018-02-18T02:41:27.875Z,1006.11
2018-02-18T02:42:27.901Z,1006.13
2018-02-18T02:43:27.925Z,1006.13
2018-02-18T02:44:27.951Z,1006.13
2018-02-18T02:45:27.976Z,1006.13
2018-02-18T02:46:28.007Z,1006.10
2018-02-18T02:47:28.027Z,1006.18
2018-02-18T02:48:28.053Z,1006.13
2018-02-18T02:49:28.079Z,1006.12
2018-02-18T02:50:28.106Z,1006.18
2018-02-18T02:51:28.134Z,1006.18
2018-02-18T02:52:28.158Z,1006.22
2018-02-18T02:53:28.179Z,1006.19
2018-02-18T02:54:28.207Z,1006.24
2018-02-18T02:55:28.229Z,1006.25
2018-02-18T02:56:28.256Z,1006.22
2018-02-18T02:57:28.282Z,1006.20
2018-02-18T02:58:28.307Z,1006.23
2018-02-18T02:59:28.338Z,1006.22
2018-02-18T03:00:28.359Z,1006.21
2018-02-18T03:01:28.387Z,1006.22
2018-02-18T03:02:28.409Z,1006.22
2018-02-18T03:03:28.435Z,1006.21
2018-02-18T03:04:28.460Z,1006.18
2018-02-18T03:05:28.485Z,1006.16
2018-02-18T03:06:28.511Z,1006.15
2018-02-18T03:07:28.535Z,1006.18
2018-02-18T03:08:28.568Z,1006.19
2018-02-18T03:09:28.586Z,1006.15
2018-02-18T03:10:28.612Z,1006.15
2018-02-18T03:11:28.637Z,1006.13
2018-02-18T03:12:28.662Z,1006.14
2018-02-18T03:13:28.687Z,1006.19
2018-02-18T03:14:28.713Z,1006.17
2018-02-18T03:15:28.741Z,1006.15
2018-02-18T03:16:28.764Z,1006.12
2018-02-18T03:17:28.790Z,1006.14
2018-02-18T03:18:28.817Z,1006.16
2018-02-18T03:19:28.839Z,1006.19
2018-02-18T03:20:28.865Z,1006.16
2018-02-18T03:21:28.894Z,1006.20
2018-02-18T03:22:28.918Z,1006.21
2018-02-18T03:23:28.940Z,1006.19
2018-02-18T03:24:28.972Z,1006.23
2018-02-18T03:25:28.998Z,1006.18
2018-02-18T03:26:29.018Z,1006.27
2018-02-18T03:27:29.043Z,1006.25
2018-02-18T03:28:29.068Z,1006.22
2018-02-18T03:29:29.094Z,1006.23
2018-02-18T03:30:29.120Z,1006.24
2018-02-18T03:31:29.146Z,1006.23
2018-02-18T03:32:29.171Z,1006.24
2018-02-18T03:33:29.200Z,1006.21
2018-02-18T03:34:29.226Z,1006.22
2018-02-18T03:35:29.245Z,1006.23
2018-02-18T03:36:29.271Z,1006.20
2018-02-18T03:37:29.297Z,1006.26
2018-02-18T03:38:29.324Z,1006.24
2018-02-18T03:39:29.348Z,1006.28
2018-02-18T03:40:29.376Z,1006.28
2018-02-18T03:41:29.402Z,1006.31
2018-02-18T03:42:29.428Z,1006.34
2018-02-18T03:43:29.449Z,1006.28
2018-02-18T03:44:29.475Z,1006.31
2018-02-18T03:45:29.501Z,1006.30
2018-02-18T03:46:29.526Z,1006.32
2018-02-18T03:47:29.552Z,1006.30
2018-02-18T03:48:29.581Z,1006.33
2018-02-18T03:49:29.603Z,1006.32
2018-02-18T03:50:29.630Z,1006.30
2018-02-18T03:51:29.653Z,1006.29
2018-02-18T03:52:29.679Z,1006.28
2018-02-18T03:53:29.705Z,1006.23
2018-02-18T03:54:29.731Z,1006.29
2018-02-18T03:55:29.755Z,1006.31
2018-02-18T03:56:29.780Z,1006.28
2018-02-18T03:57:29.807Z,1006.33
2018-02-18T03:58:29.831Z,1006.25
2018-02-18T03:59:29.856Z,1006.28
2018-02-18T04:00:29.882Z,1006.30
2018-02-18T04:01:29.908Z,1006.26
2018-02-18T04:02:29.935Z,1006.33
2018-02-18T04:03:29.961Z,1006.34
2018-02-18T04:04:29.985Z,1006.31
2018-02-18T04:05:30.011Z,1006.35
2018-02-18T04:06:30.038Z,1006.34
2018-02-18T04:07:30.066Z,1006.26
2018-02-18T04:08:30.085Z,1006.31
2018-02-18T04:09:30.111Z,1006.35
2018-02-18T04:10:30.142Z,1006.38
2018-02-18T04:11:30.161Z,1006.36
2018-02-18T04:12:30.188Z,1006.38
2018-02-18T04:13:30.214Z,1006.35
2018-02-18T04:14:30.239Z,1006.36
2018-02-18T04:15:30.268Z,1006.37
2018-02-18T04:16:30.290Z,1006.39
2018-02-18T04:17:30.315Z,1006.31
2018-02-18T04:18:30.339Z,1006.39
2018-02-18T04:19:30.363Z,1006.37
2018-02-18T04:20:30.395Z,1006.42
2018-02-18T04:21:30.416Z,1006.37
2018-02-18T04:22:30.441Z,1006.29
2018-02-18T04:23:30.466Z,1006.35
2018-02-18T04:24:30.491Z,1006.37
2018-02-18T04:25:30.517Z,1006.36
2018-02-18T04:26:30.540Z,1006.34
2018-02-18T04:27:30.566Z,1006.33
2018-02-18T04:28:30.591Z,1006.36
2018-02-18T04:29:30.616Z,1006.31
2018-02-18T04:30:30.642Z,1006.26
2018-02-18T04:31:30.668Z,1006.28
2018-02-18T04:32:30.692Z,1006.35
2018-02-18T04:33:30.719Z,1006.29
2018-02-18T04:34:30.741Z,1006.28
2018-02-18T04:35:30.767Z,1006.29
2018-02-18T04:36:30.791Z,1006.34
2018-02-18T04:37:30.817Z,1006.31
2018-02-18T04:38:30.843Z,1006.28
2018-02-18T04:39:30.867Z,1006.31
2018-02-18T04:40:30.892Z,1006.34
2018-02-18T04:41:30.917Z,1006.35
2018-02-18T04:42:30.943Z,1006.34
2018-02-18T04:43:30.969Z,1006.37
2018-02-18T04:44:30.992Z,1006.31
2018-02-18T04:45:31.017Z,1006.33
2018-02-18T04:46:31.041Z,1006.32
2018-02-18T04:47:31.066Z,1006.33
2018-02-18T04:48:31.092Z,1006.26
2018-02-18T04:49:31.118Z,1006.26
2018-02-18T04:50:31.142Z,1006.27
2018-02-18T04:51:31.168Z,1006.29
2018-02-18T04:52:31.192Z,1006.28
2018-02-18T04:53:31.218Z,1006.22
2018-02-18T04:54:31.245Z,1006.24
2018-02-18T04:55:31.267Z,1006.23
2018-02-18T04:56:31.292Z,1006.22
2018-02-18T04:57:31.317Z,1006.23
2018-02-18T04:58:31.348Z,1006.26
2018-02-18T04:59:31.368Z,1006.26
2018-02-18T05:00:31.393Z,1006.26
2018-02-18T05:01:31.418Z,1006.26
2018-02-18T05:02:31.443Z,1006.25
2018-02-18T05:03:31.466Z,1006.28
2018-02-18T05:04:31.491Z,1006.29
2018-02-18T05:05:31.517Z,1006.29
2018-02-18T05:06:31.543Z,1006.31
2018-02-18T05:07:31.567Z,1006.32
2018-02-18T05:08:31.592Z,1006.30
2018-02-18T05:09:31.616Z,1006.36
2018-02-18T05:10:31.640Z,1006.34
2018-02-18T05:11:31.668Z,1006.36
2018-02-18T05:12:31.690Z,1006.40
2018-02-18T05:13:31.715Z,1006.44
2018-02-18T05:14:31.741Z,1006.40
2018-02-18T05:15:31.765Z,1006.43
2018-02-18T05:16:31.789Z,1006.43
2018-02-18T05:17:31.815Z,1006.45
2018-02-18T05:18:31.839Z,1006.40
2018-02-18T05:19:31.864Z,1006.43
2018-02-18T05:20:31.889Z,1006.42
2018-02-18T05:21:31.914Z,1006.41
2018-02-18T05:22:31.937Z,1006.41
2018-02-18T05:23:31.963Z,1006.42
2018-02-18T05:24:31.987Z,1006.41
2018-02-18T05:25:32.019Z,1006.42
2018-02-18T05:26:32.036Z,1006.45
2018-02-18T05:27:32.062Z,1006.51
2018-02-18T05:28:32.087Z,1006.51
2018-02-18T05:29:32.109Z,1006.53
2018-02-18T05:30:32.134Z,1006.51
2018-02-18T05:31:32.159Z,1006.58
2018-02-18T05:32:32.184Z,1006.53
2018-02-18T05:33:32.209Z,1006.59
2018-02-18T05:34:32.233Z,1006.57
2018-02-18T05:35:32.258Z,1006.56
2018-02-18T05:36:32.282Z,1006.59
2018-02-18T05:37:32.307Z,1006.60
2018-02-18T05:38:32.330Z,1006.59
2018-02-18T05:39:32.355Z,1006.67
2018-02-18T05:40:32.380Z,1006.68
2018-02-18T05:41:32.409Z,1006.74
2018-02-18T05:42:32.429Z,1006.71
2018-02-18T05:43:32.453Z,1006.71
2018-02-18T05:44:32.478Z,1006.76
2018-02-18T05:45:32.503Z,1006.81
2018-02-18T05:46:32.528Z,1006.82
2018-02-18T05:47:32.552Z,1006.77
2018-02-18T05:48:32.577Z,1006.80
2018-02-18T05:49:32.600Z,1006.75
2018-02-18T05:50:32.625Z,1006.81
2018-02-18T05:51:32.649Z,1006.80
2018-02-18T05:52:32.676Z,1006.76
2018-02-18T05:53:32.697Z,1006.81
2018-02-18T05:54:32.724Z,1006.80
2018-02-18T05:55:32.747Z,1006.80
2018-02-18T05:56:32.771Z,1006.82
2018-02-18T05:57:32.796Z,1006.82
2018-02-18T05:58:32.820Z,1006.83
2018-02-18T05:59:32.844Z,1006.82
2018-02-18T06:00:32.871Z,1006.76
2018-02-18T06:01:32.894Z,1006.85
2018-02-18T06:02:32.920Z,1006.82
2018-02-18T06:03:32.942Z,1006.82
2018-02-18T06:04:32.966Z,1006.87
2018-02-18T06:05:32.991Z,1006.83
2018-02-18T06:06:33.016Z,1006.84
2018-02-18T06:07:33.039Z,1006.84
2018-02-18T06:08:33.063Z,1006.79
2018-02-18T06:09:33.088Z,1006.88
2018-02-18T06:10:33.112Z,1006.83
2018-02-18T06:11:33.135Z,1006.79
2018-02-18T06:12:33.161Z,1006.74
2018-02-18T06:13:33.186Z,1006.79
2018-02-18T06:14:33.210Z,1006.72
2018-02-18T06:15:33.234Z,1006.74
2018-02-18T06:16:33.260Z,1006.73
2018-02-18T06:17:33.283Z,1006.73
2018-02-18T06:18:33.307Z,1006.72
2018-02-18T06:19:33.331Z,1006.73
2018-02-18T06:20:33.355Z,1006.76
2018-02-18T06:21:33.381Z,1006.76
2018-02-18T06:22:33.405Z,1006.78
2018-02-18T06:23:33.429Z,1006.78
2018-02-18T06:24:33.452Z,1006.85
2018-02-18T06:25:33.477Z,1006.86
2018-02-18T06:26:33.502Z,1006.88
2018-02-18T06:27:33.526Z,1006.85
2018-02-18T06:28:33.551Z,1006.84
2018-02-18T06:29:33.575Z,1006.84
2018-02-18T06:30:33.600Z,1006.85
2018-02-18T06:31:33.624Z,1006.83
2018-02-18T06:32:33.649Z,1006.88
2018-02-18T06:33:33.674Z,1006.85
2018-02-18T06:34:33.697Z,1006.85
2018-02-18T06:35:33.721Z,1006.91
2018-02-18T06:36:33.745Z,1006.94
2018-02-18T06:37:33.770Z,1006.98
2018-02-18T06:38:33.796Z,1006.99
2018-02-18T06:39:33.821Z,1006.97
2018-02-18T06:40:33.845Z,1006.97
2018-02-18T06:41:33.869Z,1007.02
2018-02-18T06:42:33.895Z,1006.99
2018-02-18T06:43:33.916Z,1006.96
2018-02-18T06:44:33.942Z,1006.93
2018-02-18T06:45:33.967Z,1006.95
2018-02-18T06:46:33.992Z,1006.94
2018-02-18T06:47:34.015Z,1006.91
2018-02-18T06:48:34.043Z,1006.92
2018-02-18T06:49:34.066Z,1006.96
2018-02-18T06:50:34.091Z,1006.92
2018-02-18T06:51:34.113Z,1006.89
2018-02-18T06:52:34.138Z,1006.90
2018-02-18T06:53:34.163Z,1006.93
2018-02-18T06:54:34.188Z,1006.93
2018-02-18T06:55:34.212Z,1006.95
2018-02-18T06:56:34.238Z,1006.97
2018-02-18T06:57:34.262Z,1006.99
2018-02-18T06:58:34.286Z,1006.98
2018-02-18T06:59:34.310Z,1006.99
2018-02-18T07:00:34.335Z,1007.01
2018-02-18T07:01:34.361Z,1007.01
2018-02-18T07:02:34.386Z,1007.07
2018-02-18T07:03:34.409Z,1007.04
2018-02-18T07:04:34.437Z,1007.10
2018-02-18T07:05:34.459Z,1007.02
2018-02-18T07:06:34.485Z,1007.06
2018-02-18T07:07:34.508Z,1007.05
2018-02-18T07:08:34.534Z,1007.01
2018-02-18T07:09:34.558Z,1007.04
2018-02-18T07:10:34.583Z,1007.06
2018-02-18T07:11:34.606Z,1007.01
2018-02-18T07:12:34.631Z,1007.00
2018-02-18T07:13:34.656Z,1006.98
2018-02-18T07:14:34.683Z,1006.99
2018-02-18T07:15:34.707Z,1007.02
2018-02-18T07:16:34.731Z,1007.05
2018-02-18T07:17:34.756Z,1007.02
2018-02-18T07:18:34.779Z,1007.03
2018-02-18T07:19:34.805Z,1007.03
2018-02-18T07:20:34.829Z,1007.03
2018-02-18T07:21:34.855Z,1007.01
2018-02-18T07:22:34.880Z,1006.98
2018-02-18T07:23:34.904Z,1006.97
2018-02-18T07:24:34.928Z,1007.00
2018-02-18T07:25:34.953Z,1006.97
2018-02-18T07:26:34.982Z,1006.99
2018-02-18T07:27:35.001Z,1007.01
2018-02-18T07:28:35.028Z,1007.00
2018-02-18T07:29:35.052Z,1007.01
2018-02-18T07:30:35.081Z,1007.03
2018-02-18T07:31:35.101Z,1007.06
2018-02-18T07:32:35.127Z,1007.07
2018-02-18T07:33:35.151Z,1007.03
2018-02-18T07:34:35.176Z,1007.02
2018-02-18T07:35:35.201Z,1007.00
2018-02-18T07:36:35.230Z,1007.02
2018-02-18T07:37:35.251Z,1006.99
2018-02-18T07:38:35.276Z,1006.96
2018-02-18T07:39:35.300Z,1006.98
2018-02-18T07:40:35.325Z,1006.95
2018-02-18T07:41:35.352Z,1006.89
2018-02-18T07:42:35.375Z,1006.94
2018-02-18T07:43:35.399Z,1006.96
2018-02-18T07:44:35.425Z,1006.91
2018-02-18T07:45:35.454Z,1006.94
2018-02-18T07:46:35.475Z,1006.94
2018-02-18T07:47:35.499Z,1006.94
2018-02-18T07:48:35.522Z,1006.94
2018-02-18T07:49:35.548Z,1006.94
2018-02-18T07:50:35.574Z,1006.95
2018-02-18T07:51:35.598Z,1006.96
2018-02-18T07:52:35.622Z,1006.95
2018-02-18T07:53:35.647Z,1006.94
2018-02-18T07:54:35.673Z,1006.91
2018-02-18T07:55:35.697Z,1006.97
2018-02-18T07:56:35.722Z,1006.97
2018-02-18T07:57:35.747Z,1006.98
2018-02-18T07:58:35.771Z,1006.96
2018-02-18T07:59:35.797Z,1006.98
2018-02-18T08:00:35.822Z,1006.98
2018-02-18T08:01:35.847Z,1007.00
2018-02-18T08:02:35.873Z,1007.02
2018-02-18T08:03:35.894Z,1006.99
2018-02-18T08:04:35.920Z,1006.99
2018-02-18T08:05:35.946Z,1006.93
2018-02-18T08:06:35.974Z,1006.96
2018-02-18T08:07:35.994Z,1007.00
2018-02-18T08:08:36.021Z,1007.02
2018-02-18T08:09:36.047Z,1007.02
2018-02-18T08:10:36.072Z,1007.07
2018-02-18T08:11:36.096Z,1007.06
2018-02-18T08:12:36.158Z,1007.04
2018-02-18T08:13:36.146Z,1007.02
2018-02-18T08:14:36.171Z,1007.03
2018-02-18T08:15:36.194Z,1007.07
2018-02-18T08:16:36.220Z,1007.07
2018-02-18T08:17:36.246Z,1007.11
2018-02-18T08:18:36.272Z,1007.13
2018-02-18T08:19:36.296Z,1007.12
2018-02-18T08:20:36.321Z,1007.12
2018-02-18T08:21:36.347Z,1007.10
2018-02-18T08:22:36.373Z,1007.10
2018-02-18T08:23:36.397Z,1007.10
2018-02-18T08:24:36.423Z,1007.08
2018-02-18T08:25:36.449Z,1007.04
2018-02-18T08:26:36.475Z,1007.11
2018-02-18T08:27:36.498Z,1007.12
2018-02-18T08:28:36.525Z,1007.06
2018-02-18T08:29:36.552Z,1007.03
2018-02-18T08:30:36.577Z,1006.99
2018-02-18T08:31:36.602Z,1006.96
2018-02-18T08:32:36.628Z,1007.00
2018-02-18T08:33:36.654Z,1007.00
2018-02-18T08:34:36.679Z,1006.98
2018-02-18T08:35:36.705Z,1006.96
2018-02-18T08:36:36.731Z,1006.96
2018-02-18T08:37:36.758Z,1006.95
2018-02-18T08:38:36.783Z,1006.99
2018-02-18T08:39:36.809Z,1007.06
2018-02-18T08:40:36.834Z,1007.06
2018-02-18T08:41:36.861Z,1007.07
2018-02-18T08:42:36.887Z,1007.01
2018-02-18T08:43:36.913Z,1007.00
2018-02-18T08:44:36.939Z,1006.98
2018-02-18T08:45:36.965Z,1006.95
2018-02-18T08:46:36.991Z,1006.97
2018-02-18T08:47:37.017Z,1006.98
2018-02-18T08:48:37.044Z,1006.97
2018-02-18T08:49:37.070Z,1006.98
2018-02-18T08:50:37.097Z,1006.94
2018-02-18T08:51:37.122Z,1006.87
2018-02-18T08:52:37.148Z,1006.91
2018-02-18T08:53:37.175Z,1006.95
2018-02-18T08:54:37.202Z,1006.92
2018-02-18T08:55:37.227Z,1006.93
2018-02-18T08:56:37.254Z,1006.93
2018-02-18T08:57:37.282Z,1006.94
2018-02-18T08:58:37.308Z,1006.89
2018-02-18T08:59:37.334Z,1006.92
2018-02-18T09:00:37.361Z,1006.89
2018-02-18T09:01:37.388Z,1006.94
2018-02-18T09:02:37.414Z,1006.89
2018-02-18T09:03:37.441Z,1006.93
2018-02-18T09:04:37.468Z,1006.96
2018-02-18T09:05:37.496Z,1006.97
2018-02-18T09:06:37.523Z,1006.99
2018-02-18T09:07:37.549Z,1006.98
2018-02-18T09:08:37.577Z,1006.97
2018-02-18T09:09:37.604Z,1007.01
2018-02-18T09:10:37.632Z,1006.94
2018-02-18T09:11:37.659Z,1006.97
2018-02-18T09:12:37.686Z,1007.03
2018-02-18T09:13:37.714Z,1007.09
2018-02-18T09:14:37.742Z,1007.06
2018-02-18T09:15:37.770Z,1007.02
2018-02-18T09:16:37.799Z,1007.06
2018-02-18T09:17:37.825Z,1007.05
2018-02-18T09:18:37.855Z,1007.36
2018-02-18T09:19:37.884Z,1007.30
2018-02-18T09:20:37.910Z,1007.26
2018-02-18T09:21:37.940Z,1007.30
2018-02-18T09:22:38.016Z,1007.41
2018-02-18T09:23:37.997Z,1007.42
2018-02-18T09:24:38.027Z,1007.14
2018-02-18T09:25:38.057Z,1007.11
2018-02-18T09:26:38.085Z,1007.15
2018-02-18T09:27:38.115Z,1007.11
2018-02-18T09:28:38.146Z,1006.97
2018-02-18T09:29:38.180Z,1007.13
2018-02-18T09:30:38.206Z,1006.92
2018-02-18T09:31:38.237Z,1006.88
2018-02-18T09:32:38.268Z,1006.93
2018-02-18T09:33:38.299Z,1006.92
2018-02-18T09:34:38.342Z,1006.85
2018-02-18T09:35:38.360Z,1006.88
2018-02-18T09:36:38.391Z,1006.81
2018-02-18T09:37:38.420Z,1006.73
2018-02-18T09:38:38.450Z,1006.85
2018-02-18T09:39:38.480Z,1006.81
2018-02-18T09:40:38.564Z,1006.86
2018-02-18T09:41:38.539Z,1006.88
2018-02-18T09:42:38.570Z,1006.93
2018-02-18T09:43:38.599Z,1007.13
2018-02-18T09:44:38.629Z,1007.04
2018-02-18T09:45:38.659Z,1006.86
2018-02-18T09:46:38.689Z,1006.99
2018-02-18T09:47:38.716Z,1006.93
2018-02-18T09:48:38.748Z,1007.03
2018-02-18T09:49:38.780Z,1007.14
2018-02-18T09:50:38.810Z,1007.54
2018-02-18T09:51:38.837Z,1007.69
2018-02-18T09:52:38.868Z,1007.23
2018-02-18T09:53:38.899Z,1007.55
2018-02-18T09:54:38.931Z,1007.66
2018-02-18T09:55:38.961Z,1007.71
2018-02-18T09:56:38.993Z,1007.78
2018-02-18T09:57:39.024Z,1007.68
2018-02-18T09:58:39.059Z,1007.68
2018-02-18T09:59:39.090Z,1007.64
2018-02-18T10:00:39.124Z,1007.73
2018-02-18T10:01:39.160Z,1007.68
2018-02-18T10:02:39.193Z,1007.75
2018-02-18T10:03:39.227Z,1007.68
2018-02-18T10:04:39.262Z,1007.78
2018-02-18T10:05:39.300Z,1007.73
2018-02-18T10:06:39.337Z,1007.70
2018-02-18T10:07:39.372Z,1007.75
2018-02-18T10:08:39.409Z,1007.74
2018-02-18T10:09:39.447Z,1007.73
2018-02-18T10:10:39.485Z,1007.44
2018-02-18T10:11:39.522Z,1006.86
2018-02-18T10:12:39.560Z,1007.77
2018-02-18T10:13:39.599Z,1007.63
2018-02-18T10:14:39.637Z,1007.93
2018-02-18T10:15:39.675Z,1007.95
2018-02-18T10:16:39.713Z,1006.92
2018-02-18T10:17:39.752Z,1006.97
2018-02-18T10:18:39.790Z,1007.25
2018-02-18T10:19:39.828Z,1007.17
2018-02-18T10:20:39.869Z,1007.28
2018-02-18T10:21:39.906Z,1007.07
2018-02-18T10:22:39.943Z,1007.16
2018-02-18T10:23:39.980Z,1007.77
2018-02-18T10:24:40.022Z,1008.02
2018-02-18T10:25:40.057Z,1008.11
2018-02-18T10:26:40.093Z,1007.40
2018-02-18T10:27:40.130Z,1007.14
2018-02-18T10:28:40.167Z,1007.26
2018-02-18T10:29:40.207Z,1007.09
2018-02-18T10:30:40.243Z,1007.09
2018-02-18T10:31:40.279Z,1007.33
2018-02-18T10:32:40.318Z,1007.93
2018-02-18T10:33:40.354Z,1007.68
2018-02-18T10:34:40.392Z,1008.11
2018-02-18T10:35:40.428Z,1007.97
2018-02-18T10:36:40.466Z,1008.02
2018-02-18T10:37:40.503Z,1008.10
2018-02-18T10:38:40.543Z,1007.98
2018-02-18T10:39:40.580Z,1007.92
2018-02-18T10:40:40.619Z,1007.87
2018-02-18T10:41:40.656Z,1007.94
2018-02-18T10:42:40.696Z,1007.90
2018-02-18T10:43:40.736Z,1008.04
2018-02-18T10:44:40.777Z,1007.37
2018-02-18T10:45:40.817Z,1008.04
2018-02-18T10:46:40.855Z,1008.04
2018-02-18T10:47:40.900Z,1007.14
2018-02-18T10:48:40.937Z,1006.99
2018-02-18T10:49:40.979Z,1007.15
2018-02-18T10:50:41.025Z,1006.94
2018-02-18T10:51:41.059Z,1006.86
2018-02-18T10:52:41.101Z,1008.16
2018-02-18T10:53:41.142Z,1008.20
2018-02-18T10:54:41.184Z,1008.08
2018-02-18T10:55:41.224Z,1008.00
2018-02-18T10:56:41.265Z,1007.12
2018-02-18T10:57:41.307Z,1006.66
2018-02-18T10:58:41.350Z,1007.34
2018-02-18T10:59:41.389Z,1007.28
2018-02-18T11:00:41.432Z,1006.85
2018-02-18T11:01:41.474Z,1007.50
2018-02-18T11:02:41.517Z,1007.42
2018-02-18T11:03:41.556Z,1007.77
2018-02-18T11:04:41.598Z,1006.55
2018-02-18T11:05:41.638Z,1007.44
2018-02-18T11:06:41.679Z,1006.46
2018-02-18T11:07:41.720Z,1006.35
2018-02-18T11:08:41.764Z,1006.37
2018-02-18T11:09:41.801Z,1006.71
2018-02-18T11:10:41.843Z,1007.85
2018-02-18T11:11:41.884Z,1006.80
2018-02-18T11:12:41.920Z,1006.59
2018-02-18T11:13:41.961Z,1007.30
2018-02-18T11:14:42.000Z,1006.55
2018-02-18T11:15:42.039Z,1006.58
2018-02-18T11:16:42.078Z,1006.43
2018-02-18T11:17:42.150Z,1006.56
2018-02-18T11:18:42.157Z,1006.39
2018-02-18T11:19:42.194Z,1006.61
2018-02-18T11:20:42.232Z,1006.28
2018-02-18T11:21:42.271Z,1006.28
2018-02-18T11:22:42.308Z,1006.29
2018-02-18T11:23:42.344Z,1006.29
2018-02-18T11:24:42.382Z,1006.34
2018-02-18T11:25:42.419Z,1006.36
2018-02-18T11:26:42.456Z,1006.42
2018-02-18T11:27:42.491Z,1006.35
2018-02-18T11:28:42.528Z,1006.30
2018-02-18T11:29:42.563Z,1006.31
2018-02-18T11:30:42.600Z,1006.31
2018-02-18T11:31:42.634Z,1006.32
2018-02-18T11:32:42.670Z,1006.29
2018-02-18T11:33:42.704Z,1006.27
2018-02-18T11:34:42.740Z,1006.32
2018-02-18T11:35:42.774Z,1006.30
2018-02-18T11:36:42.807Z,1006.32
2018-02-18T11:37:42.841Z,1006.31
2018-02-18T11:38:42.874Z,1006.30
2018-02-18T11:39:42.907Z,1006.30
2018-02-18T11:40:42.941Z,1006.35
2018-02-18T11:41:42.973Z,1006.36
2018-02-18T11:42:43.008Z,1006.36
2018-02-18T11:43:43.039Z,1006.40
2018-02-18T11:44:43.072Z,1006.40
2018-02-18T11:45:43.104Z,1006.35
2018-02-18T11:46:43.135Z,1006.35
2018-02-18T11:47:43.168Z,1006.39
2018-02-18T11:48:43.199Z,1006.37
2018-02-18T11:49:43.231Z,1006.33
2018-02-18T11:50:43.262Z,1006.32
2018-02-18T11:51:43.293Z,1006.35
2018-02-18T11:52:43.323Z,1006.33
2018-02-18T11:53:43.356Z,1006.33
2018-02-18T11:54:43.385Z,1006.32
2018-02-18T11:55:43.417Z,1006.29
2018-02-18T11:56:43.446Z,1006.27
2018-02-18T11:57:43.554Z,1006.28
2018-02-18T11:58:43.508Z,1006.24
2018-02-18T11:59:43.537Z,1006.25
2018-02-18T12:00:43.568Z,1006.20
2018-02-18T12:01:43.598Z,1006.28
2018-02-18T12:02:43.629Z,1006.19
2018-02-18T12:03:43.659Z,1006.21
2018-02-18T12:04:43.692Z,1006.23
2018-02-18T12:05:43.717Z,1006.18